Time;durP1;ratioP1;P1;durP2;ratioP2;P2;SDS_P1;SDS_P2;PMS_P1;PMS_P2;Temp;Humidity;BMP_temperature;BMP_pressure;BME280_temperature;BME280_humidity;BME280_pressure;Samples;Min_cycle;Max_cycle;Signal;HPM_P1;HPM_P2
2023/10/02 00:01:48;;;;;;;17.67;7.13;;;17.40;99.90;;;;;;5036071;28;20095;-78
2023/10/02 00:04:17;;;;;;;19.17;7.10;;;17.30;99.90;;;;;;5042045;28;20048;-78
2023/10/02 00:06:47;;;;;;;17.15;6.78;;;17.30;99.90;;;;;;5036600;28;20099;-77
2023/10/02 00:09:13;;;;;;;17.00;7.22;;;17.30;99.90;;;;;;5022121;28;20428;-77
2023/10/02 00:11:39;;;;;;;18.10;7.53;;;17.30;99.90;;;;;;5021851;28;20547;-79
2023/10/02 00:14:20;;;;;;;15.07;7.95;;;17.30;99.90;;;;;;5021565;28;20045;-77
2023/10/02 00:17:05;;;;;;;13.45;7.30;;;17.30;99.90;;;;;;5022170;28;20470;-77
2023/10/02 00:19:38;;;;;;;17.85;6.57;;;17.30;99.90;;;;;;5022080;28;20053;-78
2023/10/02 00:22:09;;;;;;;19.70;7.45;;;17.30;99.90;;;;;;5027468;28;20132;-78
2023/10/02 00:24:41;;;;;;;17.15;7.15;;;17.30;99.90;;;;;;5040252;28;20052;-77
2023/10/02 00:27:09;;;;;;;13.68;6.40;;;17.30;99.90;;;;;;5011596;28;20045;-78
2023/10/02 00:29:35;;;;;;;17.75;7.88;;;17.20;99.90;;;;;;5038616;28;20049;-77
2023/10/02 00:32:10;;;;;;;18.33;6.13;;;17.20;99.90;;;;;;5022406;28;20120;-77
2023/10/02 00:34:38;;;;;;;16.33;7.25;;;17.20;99.90;;;;;;5033287;28;20079;-77
2023/10/02 00:37:06;;;;;;;11.63;6.65;;;17.20;99.90;;;;;;5042040;28;20094;-78
2023/10/02 00:39:34;;;;;;;16.80;6.78;;;17.10;99.90;;;;;;5041217;28;20122;-78
2023/10/02 00:44:52;;;;;;;20.95;7.22;;;17.00;99.90;;;;;;5040982;28;20142;-77
2023/10/02 00:47:48;;;;;;;18.45;6.95;;;17.00;99.90;;;;;;5038443;28;20045;-77
2023/10/02 00:50:22;;;;;;;17.00;7.13;;;16.90;99.90;;;;;;5028407;28;20049;-77
2023/10/02 00:52:54;;;;;;;16.98;7.22;;;16.90;99.90;;;;;;5032804;28;20136;-78
2023/10/02 00:55:25;;;;;;;16.10;7.32;;;16.90;99.90;;;;;;5037548;28;20037;-77
2023/10/02 00:57:58;;;;;;;14.45;7.05;;;16.80;99.90;;;;;;5030762;28;20041;-78
2023/10/02 01:00:35;;;;;;;11.95;7.05;;;16.90;99.90;;;;;;5040717;28;20120;-77
2023/10/02 01:03:08;;;;;;;14.25;6.18;;;16.80;99.90;;;;;;5025030;28;20103;-77
2023/10/02 01:05:42;;;;;;;13.48;7.38;;;16.80;99.90;;;;;;5023250;28;20045;-78
2023/10/02 01:08:25;;;;;;;16.10;6.80;;;16.80;99.90;;;;;;5016326;28;20056;-77
2023/10/02 01:10:57;;;;;;;15.02;7.82;;;16.80;99.90;;;;;;5022971;28;20041;-79
2023/10/02 01:13:38;;;;;;;18.05;7.13;;;16.70;99.90;;;;;;5039127;28;20045;-77
2023/10/02 01:16:08;;;;;;;19.13;7.50;;;16.70;99.90;;;;;;5007527;28;20045;-78
2023/10/02 01:18:35;;;;;;;13.13;6.55;;;16.70;99.90;;;;;;5009786;28;20050;-78
2023/10/02 01:21:10;;;;;;;17.20;8.30;;;16.70;99.90;;;;;;5025371;28;20401;-76
2023/10/02 01:24:07;;;;;;;20.50;7.43;;;16.70;99.90;;;;;;5009567;28;20041;-78
2023/10/02 01:26:43;;;;;;;19.58;7.70;;;16.70;99.90;;;;;;5037135;28;20470;-77
2023/10/02 01:29:11;;;;;;;17.33;7.28;;;16.80;99.90;;;;;;5024823;28;20056;-79
2023/10/02 01:31:41;;;;;;;20.23;7.90;;;16.70;99.90;;;;;;5045297;28;20049;-78
2023/10/02 01:34:10;;;;;;;17.70;7.40;;;16.70;99.90;;;;;;5028512;28;20363;-78
2023/10/02 01:36:41;;;;;;;15.75;5.55;;;16.70;99.90;;;;;;5027106;28;20044;-77
2023/10/02 01:39:15;;;;;;;23.52;7.30;;;16.70;99.90;;;;;;5026583;28;20736;-77
2023/10/02 01:41:48;;;;;;;15.98;6.80;;;16.70;99.90;;;;;;5023558;28;20068;-78
2023/10/02 01:44:14;;;;;;;14.00;6.97;;;16.70;99.90;;;;;;5008347;28;20041;-78
2023/10/02 01:46:50;;;;;;;22.20;8.40;;;16.70;99.90;;;;;;5025299;28;20075;-77
2023/10/02 01:49:26;;;;;;;16.58;7.00;;;16.70;99.90;;;;;;5024543;28;20132;-77
2023/10/02 01:51:55;;;;;;;18.95;7.65;;;16.70;99.90;;;;;;5043615;28;20041;-78
2023/10/02 01:54:22;;;;;;;20.98;8.70;;;16.70;99.90;;;;;;5042078;28;20076;-77
2023/10/02 01:56:48;;;;;;;18.80;9.02;;;16.70;99.90;;;;;;5041590;28;20042;-78
2023/10/02 01:59:20;;;;;;;19.00;9.15;;;16.70;99.90;;;;;;5029342;28;20614;-78
2023/10/02 02:01:57;;;;;;;18.65;8.95;;;16.60;99.90;;;;;;5010147;28;20041;-77
2023/10/02 02:04:29;;;;;;;22.77;8.30;;;16.60;99.90;;;;;;5043913;28;20091;-77
2023/10/02 02:06:57;;;;;;;20.30;8.93;;;16.60;99.90;;;;;;5036930;28;20049;-77
2023/10/02 02:09:37;;;;;;;19.70;8.23;;;16.70;99.90;;;;;;5007386;28;20470;-78
2023/10/02 02:12:08;;;;;;;23.05;8.50;;;16.60;99.90;;;;;;5023596;28;20087;-77
2023/10/02 02:15:02;;;;;;;26.10;10.15;;;16.60;99.90;;;;;;5024891;28;20091;-77
2023/10/02 02:17:28;;;;;;;24.38;9.90;;;16.60;99.90;;;;;;5023906;28;20587;-77
2023/10/02 02:20:10;;;;;;;24.70;9.68;;;16.60;99.90;;;;;;5024110;28;20068;-79
2023/10/02 02:22:37;;;;;;;;;;;16.60;99.90;;;;;;5008965;28;20562;-77
2023/10/02 02:25:06;;;;;;;20.65;8.88;;;16.70;99.90;;;;;;5024691;28;19999;-77
2023/10/02 02:27:31;;;;;;;25.60;10.20;;;16.60;99.90;;;;;;5039637;28;20106;-78
2023/10/02 02:29:58;;;;;;;17.80;9.50;;;16.60;99.90;;;;;;5044296;28;20044;-77
2023/10/02 02:32:44;;;;;;;25.35;10.23;;;16.60;99.90;;;;;;5026921;28;20071;-77
2023/10/02 02:35:13;;;;;;;24.05;12.32;;;16.50;99.90;;;;;;5043788;28;20044;-78
2023/10/02 02:37:41;;;;;;;25.25;11.32;;;16.60;99.90;;;;;;5043517;28;20075;-78
2023/10/02 02:40:23;;;;;;;25.88;11.20;;;16.50;99.90;;;;;;5043609;28;20037;-78
2023/10/02 02:42:52;;;;;;;29.90;11.93;;;16.50;99.90;;;;;;5042725;28;20056;-77
2023/10/02 02:45:36;;;;;;;24.00;11.88;;;16.50;99.90;;;;;;5043062;28;20029;-77
2023/10/02 02:48:06;;;;;;;23.00;10.65;;;16.50;99.90;;;;;;5043720;28;20136;-77
2023/10/02 02:50:36;;;;;;;25.00;12.05;;;16.50;99.90;;;;;;5043465;28;20116;-78
2023/10/02 02:53:40;;;;;;;27.35;11.38;;;16.50;99.90;;;;;;5027042;28;20400;-77
2023/10/02 02:56:14;;;;;;;20.58;10.45;;;16.50;99.90;;;;;;5037172;28;20053;-78
2023/10/02 02:58:43;;;;;;;27.38;11.35;;;16.40;99.90;;;;;;5022136;28;20050;-77
2023/10/02 03:01:15;;;;;;;22.92;11.10;;;16.50;99.90;;;;;;5024887;28;20558;-78
2023/10/02 03:03:42;;;;;;;25.73;12.15;;;16.40;99.90;;;;;;5024553;28;20045;-78
2023/10/02 03:06:17;;;;;;;21.60;10.18;;;16.40;99.90;;;;;;5025825;28;20049;-77
2023/10/02 03:08:44;;;;;;;29.73;12.70;;;16.40;99.90;;;;;;5043152;28;20063;-78
2023/10/02 03:11:10;;;;;;;21.20;11.02;;;16.40;99.90;;;;;;5021558;28;20061;-79
2023/10/02 03:13:39;;;;;;;26.40;11.32;;;16.30;99.90;;;;;;5024124;28;20038;-77
2023/10/02 03:16:16;;;;;;;23.58;10.32;;;16.30;99.90;;;;;;5023457;28;20099;-77
2023/10/02 03:18:44;;;;;;;19.65;9.95;;;16.30;99.90;;;;;;5022656;28;20041;-77
2023/10/02 03:21:21;;;;;;;25.42;11.30;;;16.30;99.90;;;;;;5022140;28;20049;-78
2023/10/02 03:23:53;;;;;;;27.05;11.13;;;16.30;99.90;;;;;;5007842;28;20048;-77
2023/10/02 03:29:00;;;;;;;21.92;10.32;;;16.20;99.90;;;;;;5022834;28;20050;-77
2023/10/02 03:31:51;;;;;;;21.13;11.35;;;16.30;99.90;;;;;;5006000;28;20049;-77
2023/10/02 03:34:33;;;;;;;26.55;11.35;;;16.20;99.90;;;;;;5006231;28;20052;-77
2023/10/02 03:37:24;;;;;;;;;;;16.20;99.90;;;;;;5023224;28;20046;-78
2023/10/02 03:40:14;;;;;;;22.33;9.82;;;16.30;99.90;;;;;;5021454;28;19971;-78
2023/10/02 03:42:37;;;;;;;23.58;10.05;;;16.30;99.90;;;;;;5022028;28;20041;-77
2023/10/02 03:45:04;;;;;;;24.88;9.25;;;16.30;99.90;;;;;;5022180;28;20514;-78
2023/10/02 03:47:33;;;;;;;21.33;10.88;;;16.30;99.90;;;;;;5022467;28;20124;-78
2023/10/02 03:50:02;;;;;;;23.83;10.90;;;16.30;99.90;;;;;;5022741;28;20060;-77
2023/10/02 03:52:30;;;;;;;23.80;10.10;;;16.30;99.90;;;;;;5022335;28;20041;-77
2023/10/02 03:54:56;;;;;;;27.55;11.90;;;16.30;99.90;;;;;;5022852;28;20053;-78
2023/10/02 03:57:47;;;;;;;26.27;12.00;;;16.30;99.90;;;;;;5004826;28;20102;-78
2023/10/02 04:00:18;;;;;;;27.45;12.18;;;16.40;99.90;;;;;;5023565;28;20052;-78
2023/10/02 04:02:47;;;;;;;27.10;12.47;;;16.30;99.90;;;;;;5006220;28;20054;-78
2023/10/02 04:05:32;;;;;;;24.48;11.02;;;16.30;99.90;;;;;;5021777;28;20296;-78
2023/10/02 04:08:17;;;;;;;32.05;12.25;;;16.30;99.90;;;;;;5037507;28;20426;-77
2023/10/02 04:10:57;;;;;;;28.02;10.82;;;16.40;99.90;;;;;;5042587;28;20185;-77
2023/10/02 04:13:31;;;;;;;20.92;10.63;;;16.40;99.90;;;;;;5040775;28;20056;-77
2023/10/02 04:18:45;;;;;;;25.35;11.95;;;16.30;99.90;;;;;;5029781;28;20522;-77
2023/10/02 04:21:19;;;;;;;24.45;11.45;;;16.30;99.90;;;;;;5033328;28;20037;-78
2023/10/02 04:23:45;;;;;;;24.20;12.05;;;16.30;99.90;;;;;;5041928;28;20294;-77
2023/10/02 04:26:21;;;;;;;28.70;11.32;;;16.30;99.90;;;;;;5024052;28;20049;-77
2023/10/02 04:28:55;;;;;;;17.88;9.88;;;16.30;99.90;;;;;;5023762;28;20400;-77
2023/10/02 04:31:27;;;;;;;25.85;12.57;;;16.30;99.90;;;;;;5005253;28;20045;-78
2023/10/02 04:34:15;;;;;;;;;;;16.30;99.90;;;;;;5022423;28;20048;-78
2023/10/02 04:36:40;;;;;;;22.98;9.82;;;16.30;99.90;;;;;;5021679;28;19921;-79
2023/10/02 04:42:19;;;;;;;28.75;12.27;;;16.20;99.90;;;;;;5020662;28;20058;-77
2023/10/02 04:44:58;;;;;;;28.10;10.57;;;16.20;99.90;;;;;;5021809;28;20081;-78
2023/10/02 04:47:30;;;;;;;26.63;11.70;;;16.20;99.90;;;;;;5020666;28;20492;-78
2023/10/02 04:52:55;;;;;;;25.92;11.77;;;16.10;99.90;;;;;;5021025;28;20404;-78
2023/10/02 04:55:31;;;;;;;27.55;12.13;;;16.10;99.90;;;;;;5028247;28;20052;-78
2023/10/02 04:58:19;;;;;;;27.67;12.40;;;16.10;99.90;;;;;;5033140;28;20558;-77
2023/10/02 05:03:34;;;;;;;34.20;11.98;;;16.10;99.90;;;;;;5022173;28;20758;-77
2023/10/02 05:06:00;;;;;;;22.50;10.95;;;16.10;99.90;;;;;;5021498;28;20121;-78
2023/10/02 05:08:37;;;;;;;30.92;11.40;;;16.10;99.90;;;;;;5023011;28;20187;-78
2023/10/02 05:11:07;;;;;;;39.03;11.48;;;16.00;99.90;;;;;;5020855;28;20195;-78
2023/10/02 05:16:27;;;;;;;23.67;12.00;;;16.00;99.90;;;;;;5029476;28;20056;-79
2023/10/02 05:18:54;;;;;;;29.67;12.63;;;16.00;99.90;;;;;;5036481;28;20081;-79
2023/10/02 05:21:19;;;;;;;30.85;13.32;;;16.00;99.90;;;;;;5025912;28;20055;-79
2023/10/02 05:24:00;;;;;;;28.25;13.35;;;15.90;99.90;;;;;;5034773;28;20653;-78
2023/10/02 05:26:38;;;;;;;31.42;12.68;;;15.90;99.90;;;;;;5033795;28;20153;-81
2023/10/02 05:29:07;;;;;;;34.35;13.40;;;15.90;99.90;;;;;;5040442;28;20091;-78
2023/10/02 05:31:36;;;;;;;29.15;12.48;;;15.90;99.90;;;;;;5039782;28;20068;-78
2023/10/02 05:34:09;;;;;;;30.23;13.82;;;15.90;99.90;;;;;;5005885;28;20075;-78
2023/10/02 05:36:35;;;;;;;32.88;13.02;;;15.90;99.90;;;;;;5029263;28;20049;-78
2023/10/02 05:39:27;;;;;;;27.00;11.82;;;15.90;99.90;;;;;;5033992;28;20090;-79
2023/10/02 05:41:56;;;;;;;25.10;12.05;;;15.90;99.90;;;;;;5020855;28;20488;-78
2023/10/02 05:44:25;;;;;;;26.73;10.87;;;15.90;99.90;;;;;;5020812;28;20053;-78
2023/10/02 05:47:04;;;;;;;24.17;11.10;;;15.90;99.90;;;;;;5022010;28;20045;-79
2023/10/02 05:49:31;;;;;;;24.10;11.00;;;15.90;99.90;;;;;;5027836;28;20124;-78
2023/10/02 05:52:00;;;;;;;27.83;11.43;;;15.90;99.90;;;;;;5020827;28;20092;-78
2023/10/02 05:54:29;;;;;;;22.00;11.73;;;15.90;99.90;;;;;;5030156;28;20049;-75
2023/10/02 05:57:08;;;;;;;30.52;12.52;;;15.90;99.90;;;;;;5020292;28;20050;-75
2023/10/02 05:59:45;;;;;;;26.75;12.70;;;15.80;99.90;;;;;;5006160;28;20060;-77
2023/10/02 06:02:23;;;;;;;31.55;13.77;;;15.90;99.90;;;;;;5040886;28;20045;-77
2023/10/02 06:04:54;;;;;;;32.28;14.07;;;15.90;99.90;;;;;;5032922;28;20048;-77
2023/10/02 06:10:09;;;;;;;36.13;13.55;;;15.90;99.90;;;;;;5029286;28;20508;-77
2023/10/02 06:12:36;;;;;;;32.58;14.82;;;15.90;99.90;;;;;;5028481;28;20056;-77
2023/10/02 06:15:09;;;;;;;26.95;12.45;;;16.00;99.90;;;;;;5024342;28;20053;-76
2023/10/02 06:17:35;;;;;;;31.27;14.43;;;16.00;99.90;;;;;;5034672;28;20099;-76
2023/10/02 06:20:01;;;;;;;32.28;14.35;;;16.00;99.90;;;;;;5027297;28;20041;-76
2023/10/02 06:22:27;;;;;;;34.13;16.45;;;16.00;99.90;;;;;;5031842;28;20060;-76
2023/10/02 06:24:52;;;;;;;38.60;13.60;;;16.00;99.90;;;;;;5022729;28;20038;-76
2023/10/02 06:27:22;;;;;;;38.50;14.15;;;16.10;99.90;;;;;;5034989;28;20144;-76
2023/10/02 06:29:50;;;;;;;36.92;14.43;;;16.10;99.90;;;;;;5027388;28;20180;-76
2023/10/02 06:32:19;;;;;;;32.47;15.23;;;16.10;99.90;;;;;;5036963;28;20052;-77
2023/10/02 06:34:47;;;;;;;32.83;13.38;;;16.10;99.90;;;;;;5025768;28;20488;-77
2023/10/02 06:37:16;;;;;;;34.00;14.25;;;16.10;99.90;;;;;;5044382;28;20045;-76
2023/10/02 06:40:05;;;;;;;32.85;13.95;;;16.10;99.90;;;;;;5027600;28;20041;-76
2023/10/02 06:42:32;;;;;;;34.08;14.48;;;16.10;99.90;;;;;;5010866;28;20053;-76
2023/10/02 06:45:01;;;;;;;31.77;14.05;;;16.10;99.90;;;;;;5024570;28;20037;-77
2023/10/02 06:47:30;;;;;;;29.08;12.50;;;16.10;99.90;;;;;;5023907;28;20424;-76
2023/10/02 06:50:03;;;;;;;40.00;13.25;;;16.10;99.90;;;;;;5004510;28;20041;-76
2023/10/02 06:52:35;;;;;;;36.65;14.18;;;16.20;99.90;;;;;;5021944;28;20050;-76
2023/10/02 06:55:03;;;;;;;34.92;14.65;;;16.20;99.90;;;;;;5021281;28;20112;-76
2023/10/02 06:57:31;;;;;;;31.75;13.55;;;16.20;99.90;;;;;;5020134;28;20057;-76
2023/10/02 06:59:57;;;;;;;45.55;14.20;;;16.30;99.90;;;;;;5022306;28;21318;-76
2023/10/02 07:02:26;;;;;;;32.97;13.30;;;16.30;99.90;;;;;;5021465;28;20136;-76
2023/10/02 07:04:53;;;;;;;44.30;14.30;;;16.30;99.90;;;;;;5021599;28;20480;-76
2023/10/02 07:07:24;;;;;;;37.50;13.98;;;16.40;99.90;;;;;;5029060;28;20384;-76
2023/10/02 07:09:54;;;;;;;40.50;15.02;;;16.40;99.90;;;;;;5031387;28;20154;-76
2023/10/02 07:12:20;;;;;;;38.22;15.75;;;16.40;99.90;;;;;;5020635;28;20038;-76
2023/10/02 07:14:48;;;;;;;34.33;14.93;;;16.50;99.90;;;;;;5020874;28;20385;-76
2023/10/02 07:17:16;;;;;;;42.63;15.70;;;16.50;99.90;;;;;;5028085;28;20045;-76
2023/10/02 07:19:50;;;;;;;36.30;14.43;;;16.50;99.90;;;;;;5040468;28;20407;-77
2023/10/02 07:22:24;;;;;;;35.58;14.48;;;16.60;99.90;;;;;;5042229;28;20522;-76
2023/10/02 07:24:55;;;;;;;35.40;13.55;;;16.60;99.90;;;;;;5031796;28;20051;-77
2023/10/02 07:27:28;;;;;;;33.97;13.60;;;16.60;99.90;;;;;;5020724;28;20034;-76
2023/10/02 07:29:58;;;;;;;40.17;15.63;;;16.70;99.90;;;;;;5022540;28;20251;-76
2023/10/02 07:32:29;;;;;;;37.42;13.50;;;16.70;99.90;;;;;;5029494;28;20083;-76
2023/10/02 07:34:55;;;;;;;41.78;15.68;;;16.80;99.90;;;;;;5020618;28;20037;-76
2023/10/02 07:37:24;;;;;;;38.83;13.10;;;16.80;99.90;;;;;;5004835;28;20038;-76
2023/10/02 07:39:58;;;;;;;46.42;14.57;;;16.80;99.90;;;;;;5020460;28;20083;-76
2023/10/02 07:42:25;;;;;;;32.45;14.35;;;16.90;99.90;;;;;;5025220;28;20037;-76
2023/10/02 07:44:51;;;;;;;36.28;13.65;;;16.90;99.90;;;;;;5021742;28;20047;-75
2023/10/02 07:47:16;;;;;;;33.72;13.50;;;16.90;99.90;;;;;;5033993;28;20067;-76
2023/10/02 07:49:48;;;;;;;39.67;13.98;;;17.00;99.90;;;;;;5037729;28;20041;-76
2023/10/02 07:52:35;;;;;;;36.50;15.85;;;17.00;99.90;;;;;;5028883;28;20124;-76
2023/10/02 07:55:02;;;;;;;37.95;15.30;;;17.00;99.90;;;;;;5040260;28;20044;-75
2023/10/02 07:57:30;;;;;;;34.58;13.80;;;17.10;99.90;;;;;;5039765;28;20045;-75
2023/10/02 08:00:33;;;;;;;40.75;15.15;;;17.10;99.90;;;;;;5040235;28;20522;-74
2023/10/02 08:02:54;;;;;;;38.90;13.98;;;17.10;99.90;;;;;;5040812;28;20626;-75
2023/10/02 08:05:20;;;;;;;33.58;14.70;;;17.20;99.90;;;;;;5040142;28;20133;-77
2023/10/02 08:07:46;;;;;;;38.65;14.85;;;17.20;99.90;;;;;;5029730;28;20045;-75
2023/10/02 08:10:13;;;;;;;35.97;14.70;;;17.20;99.90;;;;;;5019953;28;20057;-75
2023/10/02 08:12:54;;;;;;;31.92;14.10;;;17.30;99.90;;;;;;5019202;28;20484;-76
2023/10/02 08:15:26;;;;;;;34.08;14.95;;;17.30;99.90;;;;;;5006710;28;20060;-75
2023/10/02 08:20:32;;;;;;;41.92;13.80;;;17.40;99.90;;;;;;5039797;28;20049;-75
2023/10/02 08:23:02;;;;;;;42.95;13.63;;;17.40;99.90;;;;;;5041364;28;20037;-75
2023/10/02 08:25:28;;;;;;;36.88;14.35;;;17.50;99.90;;;;;;5037305;28;20462;-76
2023/10/02 08:27:56;;;;;;;32.47;13.00;;;17.50;99.90;;;;;;5040934;28;20527;-74
2023/10/02 08:30:27;;;;;;;40.08;16.40;;;17.60;99.90;;;;;;5040240;28;20089;-75
2023/10/02 08:33:05;;;;;;;44.53;14.25;;;17.60;99.90;;;;;;5039337;28;20045;-75
2023/10/02 08:35:40;;;;;;;38.92;14.80;;;17.60;99.90;;;;;;5028397;28;20034;-74
2023/10/02 08:38:21;;;;;;;35.08;13.82;;;17.60;99.90;;;;;;5020149;28;20044;-75
2023/10/02 08:40:57;;;;;;;35.80;13.48;;;17.60;99.90;;;;;;5031973;28;20706;-76
2023/10/02 08:43:27;;;;;;;40.45;14.32;;;17.70;99.90;;;;;;5039812;28;20052;-75
2023/10/02 08:45:53;;;;;;;43.38;14.70;;;17.70;99.90;;;;;;5028621;28;20095;-75
2023/10/02 08:48:22;;;;;;;38.00;14.00;;;17.70;99.90;;;;;;5020372;28;20423;-75
2023/10/02 08:50:48;;;;;;;36.65;14.68;;;17.70;99.90;;;;;;5021090;28;20041;-75
2023/10/02 08:53:21;;;;;;;42.55;14.75;;;17.80;99.90;;;;;;5019175;28;20041;-75
2023/10/02 08:58:17;;;;;;;34.00;12.77;;;17.90;99.90;;;;;;5018763;28;20045;-75
2023/10/02 09:03:42;;;;;;;32.17;12.00;;;17.90;99.90;;;;;;5039735;28;20130;-75
2023/10/02 09:06:32;;;;;;;43.58;15.02;;;17.90;99.90;;;;;;5024850;28;20467;-76
2023/10/02 09:11:41;;;;;;;32.30;13.15;;;18.00;99.90;;;;;;5021434;28;20493;-75
2023/10/02 09:14:21;;;;;;;33.83;11.30;;;18.00;99.90;;;;;;5024942;28;20043;-75
2023/10/02 09:17:17;;;;;;;27.90;12.02;;;18.00;99.90;;;;;;5021491;28;20037;-75
2023/10/02 09:20:03;;;;;;;38.33;13.07;;;18.10;99.90;;;;;;5038221;28;20041;-75
2023/10/02 09:22:34;;;;;;;37.42;11.77;;;18.10;99.90;;;;;;5006803;28;20052;-75
2023/10/02 09:25:13;;;;;;;28.70;12.30;;;18.20;99.90;;;;;;5038006;28;20044;-76
2023/10/02 09:27:56;;;;;;;30.00;11.05;;;18.20;99.90;;;;;;5038879;28;20037;-76
2023/10/02 09:30:36;;;;;;;27.08;10.63;;;18.30;99.90;;;;;;5036933;28;20047;-75
2023/10/02 09:33:07;;;;;;;27.50;11.65;;;18.30;99.90;;;;;;5019356;28;20042;-75
2023/10/02 09:35:42;;;;;;;28.45;11.15;;;18.40;99.90;;;;;;5038681;28;20719;-76
2023/10/02 09:38:13;;;;;;;20.63;9.75;;;18.40;99.90;;;;;;5041175;28;20044;-75
2023/10/02 09:43:30;;;;;;;28.40;9.75;;;18.40;99.90;;;;;;5042356;28;20099;-75
2023/10/02 09:46:15;;;;;;;24.70;8.70;;;18.40;99.90;;;;;;5042463;28;20309;-75
2023/10/02 09:48:57;;;;;;;22.23;9.38;;;18.40;99.90;;;;;;5037871;28;20045;-76
2023/10/02 09:51:26;;;;;;;26.73;9.07;;;18.50;99.90;;;;;;5042791;28;20519;-75
2023/10/02 09:54:19;;;;;;;25.73;8.75;;;18.50;99.90;;;;;;5042357;28;20053;-76
2023/10/02 09:57:11;;;;;;;27.45;8.68;;;18.60;99.90;;;;;;5014593;28;20135;-75
2023/10/02 09:59:45;;;;;;;21.00;8.43;;;18.60;99.90;;;;;;5025226;28;20248;-76
2023/10/02 10:02:49;;;;;;;20.83;8.55;;;18.70;99.90;;;;;;5042402;28;20045;-76
2023/10/02 10:10:49;;;;;;;22.45;9.40;;;18.80;99.90;;;;;;5022386;28;20049;-75
2023/10/02 10:13:37;;;;;;;22.27;8.32;;;18.90;99.90;;;;;;5023348;28;20047;-75
2023/10/02 10:16:18;;;;;;;15.82;7.63;;;18.90;99.90;;;;;;5022317;28;20291;-75
2023/10/02 10:21:56;;;;;;;24.95;7.55;;;19.10;99.90;;;;;;5022316;28;20041;-75
2023/10/02 10:24:58;;;;;;;23.95;9.27;;;19.20;99.90;;;;;;5031969;28;20034;-76
2023/10/02 10:27:42;;;;;;;20.73;8.77;;;19.30;99.90;;;;;;5028920;28;20059;-75
2023/10/02 10:30:33;;;;;;;20.75;8.95;;;19.30;99.90;;;;;;5042371;28;20049;-75
2023/10/02 10:35:51;;;;;;;23.40;8.50;;;19.50;99.90;;;;;;5041411;28;20053;-75
2023/10/02 10:38:26;;;;;;;17.77;8.60;;;19.50;99.90;;;;;;5013030;28;20073;-76
2023/10/02 10:41:00;;;;;;;23.20;9.02;;;19.50;99.90;;;;;;5022431;28;20045;-75
2023/10/02 10:46:21;;;;;;;18.08;8.02;;;19.60;99.90;;;;;;5032051;28;20494;-75
2023/10/02 10:49:10;;;;;;;;;;;19.60;99.90;;;;;;5024762;28;20045;-74
2023/10/02 10:51:36;;;;;;;23.67;7.53;;;19.60;99.90;;;;;;5026080;28;19921;-75
2023/10/02 10:54:13;;;;;;;18.80;7.18;;;19.60;99.90;;;;;;5024038;28;20447;-75
2023/10/02 10:56:46;;;;;;;18.17;6.55;;;19.70;99.90;;;;;;5034037;28;20571;-76
2023/10/02 10:59:22;;;;;;;16.70;7.10;;;19.70;99.90;;;;;;5034104;28;20041;-75
2023/10/02 11:02:09;;;;;;;14.50;7.18;;;19.70;99.90;;;;;;5040940;28;20040;-75
2023/10/02 11:04:40;;;;;;;13.20;6.65;;;19.80;99.90;;;;;;5032193;28;20085;-75
2023/10/02 11:07:23;;;;;;;20.05;6.82;;;19.80;99.90;;;;;;5037571;28;20080;-75
2023/10/02 11:10:15;;;;;;;14.20;6.63;;;19.90;99.90;;;;;;5040536;28;20076;-75
2023/10/02 11:12:55;;;;;;;17.90;7.13;;;19.90;99.90;;;;;;5030185;28;20037;-75
2023/10/02 11:18:21;;;;;;;15.77;6.40;;;20.00;99.90;;;;;;5026964;28;20052;-75
2023/10/02 11:20:50;;;;;;;16.17;6.28;;;20.00;99.90;;;;;;5040964;28;20107;-74
2023/10/02 11:23:55;;;;;;;15.73;6.75;;;20.00;99.90;;;;;;5039591;28;20041;-75
2023/10/02 11:26:21;;;;;;;19.08;7.50;;;20.10;99.90;;;;;;5040691;28;20225;-75
2023/10/02 11:28:50;;;;;;;13.52;6.03;;;20.10;99.90;;;;;;5030780;28;20038;-75
2023/10/02 11:31:29;;;;;;;14.75;5.53;;;20.10;99.90;;;;;;5042172;28;20068;-75
2023/10/02 11:34:03;;;;;;;9.73;6.13;;;20.10;99.90;;;;;;5029487;28;20029;-75
2023/10/02 11:36:33;;;;;;;13.13;5.75;;;20.10;99.90;;;;;;5031514;28;20061;-76
2023/10/02 11:39:00;;;;;;;11.02;6.20;;;20.10;99.90;;;;;;5027531;28;20257;-75
2023/10/02 11:41:27;;;;;;;15.85;7.38;;;20.20;99.90;;;;;;5019706;28;20357;-75
2023/10/02 11:43:54;;;;;;;18.95;10.00;;;20.10;99.90;;;;;;5021877;28;20052;-75
2023/10/02 11:46:22;;;;;;;17.75;8.20;;;20.20;99.90;;;;;;5031510;28;20087;-79
2023/10/02 11:48:51;;;;;;;14.57;6.75;;;20.10;99.90;;;;;;5023092;28;20050;-77
2023/10/02 11:51:17;;;;;;;19.10;7.30;;;20.20;99.90;;;;;;5005224;28;20542;-75
2023/10/02 11:53:42;;;;;;;18.45;8.23;;;20.20;99.90;;;;;;5021947;28;20045;-75
2023/10/02 11:56:08;;;;;;;14.75;6.63;;;20.20;99.90;;;;;;5019956;28;20128;-74
2023/10/02 11:58:34;;;;;;;16.35;7.35;;;20.20;99.90;;;;;;5021800;28;20715;-75
2023/10/02 12:01:04;;;;;;;16.67;7.68;;;20.30;99.90;;;;;;5020915;28;20033;-74
2023/10/02 12:03:35;;;;;;;18.50;7.35;;;20.30;99.90;;;;;;5020578;28;20476;-75
2023/10/02 12:06:10;;;;;;;10.50;7.10;;;20.30;99.90;;;;;;5003573;28;20045;-75
2023/10/02 12:08:38;;;;;;;17.80;7.75;;;20.30;99.90;;;;;;5020025;28;20195;-75
2023/10/02 12:11:04;;;;;;;17.48;7.75;;;20.30;99.90;;;;;;5020216;28;20057;-75
2023/10/02 12:13:29;;;;;;;15.65;7.03;;;20.30;99.90;;;;;;5019543;28;20101;-75
2023/10/02 12:15:56;;;;;;;15.18;7.18;;;20.30;99.90;;;;;;5021360;28;20041;-75
2023/10/02 12:18:22;;;;;;;15.75;7.32;;;20.40;99.90;;;;;;5019206;28;20053;-75
2023/10/02 12:20:49;;;;;;;20.23;7.88;;;20.40;99.90;;;;;;5020553;28;20033;-75
2023/10/02 12:23:16;;;;;;;22.92;9.13;;;20.40;99.90;;;;;;5020422;28;20269;-75
2023/10/02 12:25:50;;;;;;;18.95;7.78;;;20.40;99.90;;;;;;5020127;28;20096;-74
2023/10/02 12:28:16;;;;;;;18.85;9.30;;;20.40;99.90;;;;;;5019447;28;20041;-75
2023/10/02 12:30:41;;;;;;;24.25;8.73;;;20.40;99.90;;;;;;5019186;28;20395;-75
2023/10/02 12:33:09;;;;;;;19.52;9.07;;;20.40;99.90;;;;;;5019679;28;20088;-75
2023/10/02 12:35:36;;;;;;;16.70;8.50;;;20.40;99.90;;;;;;5019436;28;20786;-75
2023/10/02 12:38:03;;;;;;;16.55;9.13;;;20.40;99.90;;;;;;5019774;28;20064;-75
2023/10/02 12:40:34;;;;;;;27.52;12.18;;;20.40;99.90;;;;;;5019742;28;20436;-75
2023/10/02 12:43:03;;;;;;;18.75;9.02;;;20.40;99.90;;;;;;5018858;28;20407;-75
2023/10/02 12:45:35;;;;;;;21.00;10.50;;;20.50;99.90;;;;;;5018556;28;20218;-75
2023/10/02 12:48:06;;;;;;;21.75;9.57;;;20.40;99.90;;;;;;5020225;28;20045;-75
2023/10/02 12:50:37;;;;;;;23.33;10.00;;;20.40;99.90;;;;;;5018325;28;20048;-75
2023/10/02 12:53:04;;;;;;;19.73;9.13;;;20.40;99.90;;;;;;5020291;28;20496;-75
2023/10/02 12:55:32;;;;;;;21.05;10.35;;;20.50;99.90;;;;;;5018921;28;20560;-75
2023/10/02 12:57:58;;;;;;;25.55;10.68;;;20.50;99.90;;;;;;5020574;28;20099;-75
2023/10/02 13:00:24;;;;;;;20.80;10.68;;;20.50;99.90;;;;;;5002319;28;20042;-75
2023/10/02 13:02:50;;;;;;;22.27;10.02;;;20.50;99.90;;;;;;5018226;28;20403;-75
2023/10/02 13:05:16;;;;;;;21.83;11.02;;;20.50;99.90;;;;;;5002289;28;20091;-75
2023/10/02 13:07:42;;;;;;;24.88;10.90;;;20.50;99.90;;;;;;5033874;28;20055;-75
2023/10/02 13:10:08;;;;;;;24.67;11.25;;;20.50;99.90;;;;;;5038880;28;20483;-75
2023/10/02 13:12:34;;;;;;;23.50;11.77;;;20.50;99.90;;;;;;5041756;28;20072;-75
2023/10/02 13:15:00;;;;;;;19.00;8.13;;;20.50;99.90;;;;;;5044294;28;20040;-75
2023/10/02 13:17:27;;;;;;;21.23;10.90;;;20.50;99.90;;;;;;5043824;28;20041;-75
2023/10/02 13:19:55;;;;;;;21.13;10.38;;;20.50;99.90;;;;;;5042588;28;20137;-75
2023/10/02 13:22:20;;;;;;;25.25;10.05;;;20.60;99.90;;;;;;5043225;28;20072;-75
2023/10/02 13:24:46;;;;;;;21.25;10.85;;;20.60;99.90;;;;;;5042052;28;20499;-75
2023/10/02 13:27:17;;;;;;;21.80;12.30;;;20.60;99.90;;;;;;5042637;28;20389;-75
2023/10/02 13:29:43;;;;;;;19.73;10.27;;;20.60;99.90;;;;;;5043585;28;20511;-75
2023/10/02 13:32:09;;;;;;;22.83;10.93;;;20.60;99.90;;;;;;5043346;28;20037;-75
2023/10/02 13:34:35;;;;;;;24.25;11.93;;;20.70;99.90;;;;;;5044659;28;20072;-75
2023/10/02 13:37:01;;;;;;;24.95;11.32;;;20.70;99.90;;;;;;5026389;28;20052;-75
2023/10/02 13:39:27;;;;;;;21.85;11.05;;;20.70;99.90;;;;;;5041983;28;20059;-75
2023/10/02 13:41:52;;;;;;;22.95;11.57;;;20.70;99.90;;;;;;5041575;28;20543;-75
2023/10/02 13:44:19;;;;;;;21.30;10.63;;;20.70;99.90;;;;;;5042608;28;20138;-75
2023/10/02 13:46:46;;;;;;;23.13;10.75;;;20.70;99.90;;;;;;5041939;28;20037;-75
2023/10/02 13:49:14;;;;;;;20.33;10.70;;;20.70;99.90;;;;;;5041727;28;20516;-75
2023/10/02 13:51:41;;;;;;;24.45;11.02;;;20.70;99.90;;;;;;5042203;28;20045;-75
2023/10/02 13:54:07;;;;;;;20.00;10.77;;;20.70;99.90;;;;;;5042417;28;20060;-75